sensor_id;sensor_type;location;lat;lon;timestamp;P1;durP1;ratioP1;P2;durP2;ratioP2
75167;SDS011;63748;48.088;11.476;2023-05-13T00:00:46;7.38;;;3.53;;
75167;SDS011;63748;48.088;11.476;2023-05-13T00:03:12;7.07;;;4.22;;
75167;SDS011;63748;48.088;11.476;2023-05-13T00:05:38;6.53;;;3.75;;
75167;SDS011;63748;48.088;11.476;2023-05-13T00:08:04;6.50;;;3.85;;
75167;SDS011;63748;48.088;11.476;2023-05-13T00:10:33;6.22;;;3.80;;
75167;SDS011;63748;48.088;11.476;2023-05-13T00:13:00;9.70;;;4.93;;
75167;SDS011;63748;48.088;11.476;2023-05-13T00:15:26;7.75;;;4.82;;
75167;SDS011;63748;48.088;11.476;2023-05-13T00:17:52;7.55;;;4.55;;
75167;SDS011;63748;48.088;11.476;2023-05-13T00:20:18;6.03;;;4.40;;
75167;SDS011;63748;48.088;11.476;2023-05-13T00:22:44;7.65;;;4.90;;
75167;SDS011;63748;48.088;11.476;2023-05-13T00:25:10;6.85;;;4.72;;
75167;SDS011;63748;48.088;11.476;2023-05-13T00:27:36;8.23;;;5.70;;
75167;SDS011;63748;48.088;11.476;2023-05-13T00:30:03;7.75;;;4.80;;
75167;SDS011;63748;48.088;11.476;2023-05-13T00:32:29;10.25;;;5.22;;
75167;SDS011;63748;48.088;11.476;2023-05-13T00:34:55;6.70;;;3.97;;
75167;SDS011;63748;48.088;11.476;2023-05-13T00:37:22;9.35;;;5.25;;
75167;SDS011;63748;48.088;11.476;2023-05-13T00:39:48;8.93;;;5.07;;
75167;SDS011;63748;48.088;11.476;2023-05-13T00:42:14;7.57;;;5.10;;
75167;SDS011;63748;48.088;11.476;2023-05-13T00:44:40;8.13;;;5.35;;
75167;SDS011;63748;48.088;11.476;2023-05-13T00:47:06;7.57;;;4.78;;
75167;SDS011;63748;48.088;11.476;2023-05-13T00:49:32;9.00;;;5.32;;
75167;SDS011;63748;48.088;11.476;2023-05-13T00:51:59;9.35;;;5.07;;
75167;SDS011;63748;48.088;11.476;2023-05-13T00:54:25;6.68;;;4.63;;
75167;SDS011;63748;48.088;11.476;2023-05-13T00:56:51;8.93;;;5.07;;
75167;SDS011;63748;48.088;11.476;2023-05-13T00:59:20;9.20;;;4.80;;
75167;SDS011;63748;48.088;11.476;2023-05-13T01:01:49;10.88;;;5.13;;
75167;SDS011;63748;48.088;11.476;2023-05-13T01:07:32;8.48;;;5.70;;
75167;SDS011;63748;48.088;11.476;2023-05-13T01:10:02;10.77;;;6.18;;
75167;SDS011;63748;48.088;11.476;2023-05-13T01:12:31;9.50;;;5.95;;
75167;SDS011;63748;48.088;11.476;2023-05-13T01:15:05;8.60;;;5.10;;
75167;SDS011;63748;48.088;11.476;2023-05-13T01:20:04;8.88;;;5.22;;
75167;SDS011;63748;48.088;11.476;2023-05-13T01:22:31;8.25;;;5.40;;
75167;SDS011;63748;48.088;11.476;2023-05-13T01:24:57;8.32;;;5.57;;
75167;SDS011;63748;48.088;11.476;2023-05-13T01:27:23;10.15;;;6.43;;
75167;SDS011;63748;48.088;11.476;2023-05-13T01:29:50;12.27;;;5.72;;
75167;SDS011;63748;48.088;11.476;2023-05-13T01:32:16;12.25;;;5.63;;
75167;SDS011;63748;48.088;11.476;2023-05-13T01:34:42;11.55;;;6.30;;
75167;SDS011;63748;48.088;11.476;2023-05-13T01:37:09;12.32;;;6.75;;
75167;SDS011;63748;48.088;11.476;2023-05-13T01:39:38;14.60;;;6.68;;
75167;SDS011;63748;48.088;11.476;2023-05-13T01:42:05;12.40;;;6.38;;
75167;SDS011;63748;48.088;11.476;2023-05-13T01:44:31;14.73;;;7.25;;
75167;SDS011;63748;48.088;11.476;2023-05-13T01:46:57;15.02;;;6.07;;
75167;SDS011;63748;48.088;11.476;2023-05-13T01:49:23;13.45;;;7.22;;
75167;SDS011;63748;48.088;11.476;2023-05-13T01:51:50;12.77;;;6.70;;
75167;SDS011;63748;48.088;11.476;2023-05-13T01:54:16;13.82;;;7.47;;
75167;SDS011;63748;48.088;11.476;2023-05-13T01:56:42;13.02;;;7.45;;
75167;SDS011;63748;48.088;11.476;2023-05-13T01:59:08;11.48;;;6.65;;
75167;SDS011;63748;48.088;11.476;2023-05-13T02:01:35;12.18;;;6.63;;
75167;SDS011;63748;48.088;11.476;2023-05-13T02:04:01;15.95;;;7.53;;
75167;SDS011;63748;48.088;11.476;2023-05-13T02:06:27;13.05;;;6.80;;
75167;SDS011;63748;48.088;11.476;2023-05-13T02:08:53;13.25;;;7.35;;
75167;SDS011;63748;48.088;11.476;2023-05-13T02:11:19;14.52;;;7.25;;
75167;SDS011;63748;48.088;11.476;2023-05-13T02:13:46;12.63;;;7.82;;
75167;SDS011;63748;48.088;11.476;2023-05-13T02:16:16;13.60;;;7.07;;
75167;SDS011;63748;48.088;11.476;2023-05-13T02:18:42;12.95;;;7.43;;
75167;SDS011;63748;48.088;11.476;2023-05-13T02:21:08;13.18;;;7.13;;
75167;SDS011;63748;48.088;11.476;2023-05-13T02:23:34;11.93;;;7.88;;
75167;SDS011;63748;48.088;11.476;2023-05-13T02:26:01;12.13;;;7.47;;
75167;SDS011;63748;48.088;11.476;2023-05-13T02:28:27;15.57;;;7.85;;
75167;SDS011;63748;48.088;11.476;2023-05-13T02:30:53;12.18;;;6.88;;
75167;SDS011;63748;48.088;11.476;2023-05-13T02:33:19;14.13;;;6.93;;
75167;SDS011;63748;48.088;11.476;2023-05-13T02:35:45;16.10;;;8.00;;
75167;SDS011;63748;48.088;11.476;2023-05-13T02:38:11;12.20;;;7.70;;
75167;SDS011;63748;48.088;11.476;2023-05-13T02:40:37;16.30;;;8.73;;
75167;SDS011;63748;48.088;11.476;2023-05-13T02:43:03;15.85;;;8.25;;
75167;SDS011;63748;48.088;11.476;2023-05-13T02:45:29;15.38;;;9.43;;
75167;SDS011;63748;48.088;11.476;2023-05-13T02:47:55;13.02;;;8.10;;
75167;SDS011;63748;48.088;11.476;2023-05-13T02:50:21;13.82;;;9.05;;
75167;SDS011;63748;48.088;11.476;2023-05-13T02:52:47;15.05;;;7.70;;
75167;SDS011;63748;48.088;11.476;2023-05-13T02:55:13;15.43;;;8.68;;
75167;SDS011;63748;48.088;11.476;2023-05-13T02:57:41;13.27;;;8.98;;
75167;SDS011;63748;48.088;11.476;2023-05-13T03:00:07;17.25;;;8.63;;
75167;SDS011;63748;48.088;11.476;2023-05-13T03:02:33;14.10;;;8.43;;
75167;SDS011;63748;48.088;11.476;2023-05-13T03:05:00;16.90;;;7.78;;
75167;SDS011;63748;48.088;11.476;2023-05-13T03:07:26;15.23;;;8.20;;
75167;SDS011;63748;48.088;11.476;2023-05-13T03:09:52;16.70;;;8.10;;
75167;SDS011;63748;48.088;11.476;2023-05-13T03:12:18;13.93;;;7.85;;
75167;SDS011;63748;48.088;11.476;2023-05-13T03:14:44;17.20;;;8.63;;
75167;SDS011;63748;48.088;11.476;2023-05-13T03:17:10;16.10;;;7.72;;
75167;SDS011;63748;48.088;11.476;2023-05-13T03:19:37;15.23;;;8.55;;
75167;SDS011;63748;48.088;11.476;2023-05-13T03:22:03;13.80;;;8.32;;
75167;SDS011;63748;48.088;11.476;2023-05-13T03:24:30;11.93;;;7.10;;
75167;SDS011;63748;48.088;11.476;2023-05-13T03:26:56;14.75;;;8.45;;
75167;SDS011;63748;48.088;11.476;2023-05-13T03:29:22;13.48;;;8.27;;
75167;SDS011;63748;48.088;11.476;2023-05-13T03:31:48;14.43;;;7.78;;
75167;SDS011;63748;48.088;11.476;2023-05-13T03:34:15;14.32;;;7.53;;
75167;SDS011;63748;48.088;11.476;2023-05-13T03:36:41;14.80;;;8.75;;
75167;SDS011;63748;48.088;11.476;2023-05-13T03:39:07;13.57;;;8.32;;
75167;SDS011;63748;48.088;11.476;2023-05-13T03:41:34;14.77;;;8.48;;
75167;SDS011;63748;48.088;11.476;2023-05-13T03:44:00;13.63;;;7.82;;
75167;SDS011;63748;48.088;11.476;2023-05-13T03:46:26;16.48;;;8.75;;
75167;SDS011;63748;48.088;11.476;2023-05-13T03:48:54;15.40;;;8.27;;
75167;SDS011;63748;48.088;11.476;2023-05-13T03:51:20;14.65;;;8.27;;
75167;SDS011;63748;48.088;11.476;2023-05-13T03:53:46;15.95;;;8.23;;
75167;SDS011;63748;48.088;11.476;2023-05-13T03:56:13;12.88;;;8.02;;
75167;SDS011;63748;48.088;11.476;2023-05-13T03:58:39;13.10;;;7.95;;
75167;SDS011;63748;48.088;11.476;2023-05-13T04:01:08;15.27;;;8.48;;
75167;SDS011;63748;48.088;11.476;2023-05-13T04:03:34;13.82;;;7.35;;
75167;SDS011;63748;48.088;11.476;2023-05-13T04:06:00;16.10;;;8.98;;
75167;SDS011;63748;48.088;11.476;2023-05-13T04:08:26;12.80;;;7.22;;
75167;SDS011;63748;48.088;11.476;2023-05-13T04:10:52;14.73;;;7.68;;
75167;SDS011;63748;48.088;11.476;2023-05-13T04:13:20;15.50;;;8.48;;
75167;SDS011;63748;48.088;11.476;2023-05-13T04:15:46;14.70;;;8.38;;
75167;SDS011;63748;48.088;11.476;2023-05-13T04:18:12;12.57;;;7.63;;
75167;SDS011;63748;48.088;11.476;2023-05-13T04:20:39;13.85;;;8.18;;
75167;SDS011;63748;48.088;11.476;2023-05-13T04:23:05;13.35;;;6.60;;
75167;SDS011;63748;48.088;11.476;2023-05-13T04:25:33;13.25;;;7.35;;
75167;SDS011;63748;48.088;11.476;2023-05-13T04:28:00;13.18;;;8.15;;
75167;SDS011;63748;48.088;11.476;2023-05-13T04:30:26;13.10;;;7.38;;
75167;SDS011;63748;48.088;11.476;2023-05-13T04:32:52;13.85;;;7.85;;
75167;SDS011;63748;48.088;11.476;2023-05-13T04:35:19;15.88;;;8.13;;
75167;SDS011;63748;48.088;11.476;2023-05-13T04:37:45;13.48;;;7.50;;
75167;SDS011;63748;48.088;11.476;2023-05-13T04:40:11;15.07;;;7.63;;
75167;SDS011;63748;48.088;11.476;2023-05-13T04:42:37;12.65;;;7.95;;
75167;SDS011;63748;48.088;11.476;2023-05-13T04:45:03;13.13;;;8.00;;
75167;SDS011;63748;48.088;11.476;2023-05-13T04:47:29;15.20;;;7.45;;
75167;SDS011;63748;48.088;11.476;2023-05-13T04:49:59;13.77;;;7.40;;
75167;SDS011;63748;48.088;11.476;2023-05-13T04:52:25;15.02;;;7.57;;
75167;SDS011;63748;48.088;11.476;2023-05-13T04:54:51;12.27;;;7.03;;
75167;SDS011;63748;48.088;11.476;2023-05-13T04:57:17;12.07;;;6.70;;
75167;SDS011;63748;48.088;11.476;2023-05-13T04:59:43;12.95;;;7.03;;
75167;SDS011;63748;48.088;11.476;2023-05-13T05:02:09;14.07;;;7.03;;
75167;SDS011;63748;48.088;11.476;2023-05-13T05:04:35;11.07;;;7.20;;
75167;SDS011;63748;48.088;11.476;2023-05-13T05:07:01;12.85;;;7.85;;
75167;SDS011;63748;48.088;11.476;2023-05-13T05:09:27;14.18;;;8.10;;
75167;SDS011;63748;48.088;11.476;2023-05-13T05:11:54;13.85;;;7.70;;
75167;SDS011;63748;48.088;11.476;2023-05-13T05:14:20;14.70;;;7.78;;
75167;SDS011;63748;48.088;11.476;2023-05-13T05:16:46;13.82;;;7.18;;
75167;SDS011;63748;48.088;11.476;2023-05-13T05:19:12;11.73;;;7.20;;
75167;SDS011;63748;48.088;11.476;2023-05-13T05:21:38;16.17;;;7.43;;
75167;SDS011;63748;48.088;11.476;2023-05-13T05:24:04;14.05;;;7.60;;
75167;SDS011;63748;48.088;11.476;2023-05-13T05:26:31;15.65;;;6.90;;
75167;SDS011;63748;48.088;11.476;2023-05-13T05:28:57;13.85;;;6.93;;
75167;SDS011;63748;48.088;11.476;2023-05-13T05:31:23;13.00;;;7.15;;
75167;SDS011;63748;48.088;11.476;2023-05-13T05:33:51;14.30;;;7.00;;
75167;SDS011;63748;48.088;11.476;2023-05-13T05:36:17;10.73;;;6.40;;
75167;SDS011;63748;48.088;11.476;2023-05-13T05:38:43;11.50;;;6.68;;
75167;SDS011;63748;48.088;11.476;2023-05-13T05:41:09;13.07;;;7.05;;
75167;SDS011;63748;48.088;11.476;2023-05-13T05:43:35;13.23;;;6.88;;
75167;SDS011;63748;48.088;11.476;2023-05-13T05:46:01;11.32;;;6.55;;
75167;SDS011;63748;48.088;11.476;2023-05-13T05:48:28;11.63;;;7.30;;
75167;SDS011;63748;48.088;11.476;2023-05-13T05:50:55;12.05;;;7.18;;
75167;SDS011;63748;48.088;11.476;2023-05-13T05:53:21;13.10;;;7.70;;
75167;SDS011;63748;48.088;11.476;2023-05-13T05:55:47;12.07;;;7.18;;
75167;SDS011;63748;48.088;11.476;2023-05-13T05:58:13;14.23;;;7.30;;
75167;SDS011;63748;48.088;11.476;2023-05-13T06:00:40;16.45;;;6.80;;
75167;SDS011;63748;48.088;11.476;2023-05-13T06:03:06;13.48;;;7.82;;
75167;SDS011;63748;48.088;11.476;2023-05-13T06:05:32;12.48;;;6.97;;
75167;SDS011;63748;48.088;11.476;2023-05-13T06:07:59;14.38;;;8.02;;
75167;SDS011;63748;48.088;11.476;2023-05-13T06:10:25;17.17;;;7.72;;
75167;SDS011;63748;48.088;11.476;2023-05-13T06:12:51;14.32;;;7.55;;
75167;SDS011;63748;48.088;11.476;2023-05-13T06:15:17;12.52;;;7.32;;
75167;SDS011;63748;48.088;11.476;2023-05-13T06:17:43;12.93;;;7.13;;
75167;SDS011;63748;48.088;11.476;2023-05-13T06:20:09;13.50;;;7.93;;
75167;SDS011;63748;48.088;11.476;2023-05-13T06:22:36;14.25;;;7.45;;
75167;SDS011;63748;48.088;11.476;2023-05-13T06:25:02;14.93;;;7.90;;
75167;SDS011;63748;48.088;11.476;2023-05-13T06:27:28;11.88;;;7.35;;
75167;SDS011;63748;48.088;11.476;2023-05-13T06:29:54;13.00;;;6.72;;
75167;SDS011;63748;48.088;11.476;2023-05-13T06:32:20;14.93;;;7.93;;
75167;SDS011;63748;48.088;11.476;2023-05-13T06:34:46;11.40;;;6.35;;
75167;SDS011;63748;48.088;11.476;2023-05-13T06:37:12;12.98;;;7.13;;
75167;SDS011;63748;48.088;11.476;2023-05-13T06:39:38;12.63;;;6.03;;
75167;SDS011;63748;48.088;11.476;2023-05-13T06:42:04;11.63;;;6.78;;
75167;SDS011;63748;48.088;11.476;2023-05-13T06:44:31;12.07;;;7.10;;
75167;SDS011;63748;48.088;11.476;2023-05-13T06:46:57;13.52;;;7.75;;
75167;SDS011;63748;48.088;11.476;2023-05-13T06:49:23;11.68;;;6.80;;
75167;SDS011;63748;48.088;11.476;2023-05-13T06:51:49;9.93;;;6.07;;
75167;SDS011;63748;48.088;11.476;2023-05-13T06:54:15;10.80;;;6.35;;
75167;SDS011;63748;48.088;11.476;2023-05-13T06:56:41;12.18;;;7.38;;
75167;SDS011;63748;48.088;11.476;2023-05-13T06:59:07;11.02;;;6.03;;
75167;SDS011;63748;48.088;11.476;2023-05-13T07:01:34;11.52;;;5.75;;
75167;SDS011;63748;48.088;11.476;2023-05-13T07:04:00;14.57;;;7.05;;
75167;SDS011;63748;48.088;11.476;2023-05-13T07:06:26;14.55;;;6.97;;
75167;SDS011;63748;48.088;11.476;2023-05-13T07:08:52;11.20;;;6.00;;
75167;SDS011;63748;48.088;11.476;2023-05-13T07:11:18;11.45;;;6.50;;
75167;SDS011;63748;48.088;11.476;2023-05-13T07:13:45;11.88;;;6.18;;
75167;SDS011;63748;48.088;11.476;2023-05-13T07:16:11;12.60;;;7.20;;
75167;SDS011;63748;48.088;11.476;2023-05-13T07:18:37;13.73;;;7.60;;
75167;SDS011;63748;48.088;11.476;2023-05-13T07:21:03;11.40;;;7.00;;
75167;SDS011;63748;48.088;11.476;2023-05-13T07:23:30;14.45;;;6.95;;
75167;SDS011;63748;48.088;11.476;2023-05-13T07:25:56;13.30;;;6.93;;
75167;SDS011;63748;48.088;11.476;2023-05-13T07:28:22;11.68;;;6.68;;
75167;SDS011;63748;48.088;11.476;2023-05-13T07:30:48;12.75;;;6.65;;
75167;SDS011;63748;48.088;11.476;2023-05-13T07:33:17;15.38;;;7.55;;
75167;SDS011;63748;48.088;11.476;2023-05-13T07:35:43;13.10;;;7.28;;
75167;SDS011;63748;48.088;11.476;2023-05-13T07:38:09;13.00;;;7.03;;
75167;SDS011;63748;48.088;11.476;2023-05-13T07:40:36;12.98;;;6.20;;
75167;SDS011;63748;48.088;11.476;2023-05-13T07:43:02;11.90;;;7.35;;
75167;SDS011;63748;48.088;11.476;2023-05-13T07:45:28;15.48;;;7.32;;
75167;SDS011;63748;48.088;11.476;2023-05-13T07:47:54;14.77;;;7.40;;
75167;SDS011;63748;48.088;11.476;2023-05-13T07:50:20;16.25;;;8.02;;
75167;SDS011;63748;48.088;11.476;2023-05-13T07:52:46;15.40;;;8.13;;
75167;SDS011;63748;48.088;11.476;2023-05-13T07:55:14;17.13;;;7.43;;
75167;SDS011;63748;48.088;11.476;2023-05-13T07:57:41;14.25;;;7.95;;
75167;SDS011;63748;48.088;11.476;2023-05-13T08:00:07;12.95;;;7.22;;
75167;SDS011;63748;48.088;11.476;2023-05-13T08:02:33;14.93;;;7.43;;
75167;SDS011;63748;48.088;11.476;2023-05-13T08:04:59;14.68;;;8.02;;
75167;SDS011;63748;48.088;11.476;2023-05-13T08:07:26;16.27;;;8.55;;
75167;SDS011;63748;48.088;11.476;2023-05-13T08:09:52;17.48;;;8.85;;
75167;SDS011;63748;48.088;11.476;2023-05-13T08:12:18;13.85;;;7.78;;
75167;SDS011;63748;48.088;11.476;2023-05-13T08:14:44;16.80;;;8.07;;
75167;SDS011;63748;48.088;11.476;2023-05-13T08:17:10;16.60;;;8.32;;
75167;SDS011;63748;48.088;11.476;2023-05-13T08:19:37;14.15;;;7.63;;
75167;SDS011;63748;48.088;11.476;2023-05-13T08:22:03;15.05;;;7.90;;
75167;SDS011;63748;48.088;11.476;2023-05-13T08:24:29;16.05;;;8.55;;
75167;SDS011;63748;48.088;11.476;2023-05-13T08:26:55;14.75;;;7.65;;
75167;SDS011;63748;48.088;11.476;2023-05-13T08:29:21;14.65;;;7.95;;
75167;SDS011;63748;48.088;11.476;2023-05-13T08:31:47;15.15;;;8.43;;
75167;SDS011;63748;48.088;11.476;2023-05-13T08:34:14;15.07;;;8.63;;
75167;SDS011;63748;48.088;11.476;2023-05-13T08:36:40;15.60;;;8.20;;
75167;SDS011;63748;48.088;11.476;2023-05-13T08:39:07;12.98;;;6.97;;
75167;SDS011;63748;48.088;11.476;2023-05-13T08:41:33;14.10;;;7.63;;
75167;SDS011;63748;48.088;11.476;2023-05-13T08:43:59;14.18;;;7.15;;
75167;SDS011;63748;48.088;11.476;2023-05-13T08:46:29;13.40;;;6.97;;
75167;SDS011;63748;48.088;11.476;2023-05-13T08:48:57;11.93;;;6.50;;
75167;SDS011;63748;48.088;11.476;2023-05-13T08:51:23;10.75;;;5.47;;
75167;SDS011;63748;48.088;11.476;2023-05-13T08:53:50;11.82;;;5.93;;
75167;SDS011;63748;48.088;11.476;2023-05-13T08:56:17;14.95;;;7.53;;
75167;SDS011;63748;48.088;11.476;2023-05-13T08:58:43;13.90;;;6.95;;
75167;SDS011;63748;48.088;11.476;2023-05-13T09:01:09;12.73;;;7.15;;
75167;SDS011;63748;48.088;11.476;2023-05-13T09:03:36;12.80;;;6.65;;
75167;SDS011;63748;48.088;11.476;2023-05-13T09:06:05;13.25;;;6.75;;
75167;SDS011;63748;48.088;11.476;2023-05-13T09:08:31;13.70;;;7.75;;
75167;SDS011;63748;48.088;11.476;2023-05-13T09:10:57;11.65;;;6.03;;
75167;SDS011;63748;48.088;11.476;2023-05-13T09:13:23;8.75;;;4.93;;
75167;SDS011;63748;48.088;11.476;2023-05-13T09:15:49;12.05;;;6.03;;
75167;SDS011;63748;48.088;11.476;2023-05-13T09:18:16;10.77;;;5.88;;
75167;SDS011;63748;48.088;11.476;2023-05-13T09:20:42;10.13;;;5.70;;
75167;SDS011;63748;48.088;11.476;2023-05-13T09:23:09;12.68;;;7.28;;
75167;SDS011;63748;48.088;11.476;2023-05-13T09:25:35;11.45;;;6.20;;
75167;SDS011;63748;48.088;11.476;2023-05-13T09:28:03;16.05;;;8.07;;
75167;SDS011;63748;48.088;11.476;2023-05-13T09:30:31;15.30;;;7.70;;
75167;SDS011;63748;48.088;11.476;2023-05-13T09:33:16;11.32;;;6.68;;
75167;SDS011;63748;48.088;11.476;2023-05-13T09:35:49;13.20;;;6.88;;
75167;SDS011;63748;48.088;11.476;2023-05-13T09:38:25;15.02;;;7.53;;
75167;SDS011;63748;48.088;11.476;2023-05-13T09:40:55;16.27;;;7.90;;
75167;SDS011;63748;48.088;11.476;2023-05-13T09:43:22;12.05;;;6.97;;
75167;SDS011;63748;48.088;11.476;2023-05-13T09:45:56;13.02;;;7.38;;
75167;SDS011;63748;48.088;11.476;2023-05-13T09:48:23;12.98;;;6.32;;
75167;SDS011;63748;48.088;11.476;2023-05-13T09:50:50;11.70;;;6.13;;
75167;SDS011;63748;48.088;11.476;2023-05-13T09:53:17;11.20;;;6.07;;
75167;SDS011;63748;48.088;11.476;2023-05-13T09:55:46;11.13;;;6.50;;
75167;SDS011;63748;48.088;11.476;2023-05-13T09:58:12;10.02;;;6.63;;
75167;SDS011;63748;48.088;11.476;2023-05-13T10:00:39;11.45;;;6.90;;
75167;SDS011;63748;48.088;11.476;2023-05-13T10:03:06;10.77;;;6.30;;
75167;SDS011;63748;48.088;11.476;2023-05-13T10:05:32;11.65;;;6.47;;
75167;SDS011;63748;48.088;11.476;2023-05-13T10:08:02;10.93;;;6.63;;
75167;SDS011;63748;48.088;11.476;2023-05-13T10:10:29;11.88;;;7.25;;
75167;SDS011;63748;48.088;11.476;2023-05-13T10:12:57;13.18;;;6.95;;
75167;SDS011;63748;48.088;11.476;2023-05-13T10:15:24;10.68;;;6.40;;
75167;SDS011;63748;48.088;11.476;2023-05-13T10:17:50;12.43;;;6.35;;
75167;SDS011;63748;48.088;11.476;2023-05-13T10:20:17;11.95;;;5.95;;
75167;SDS011;63748;48.088;11.476;2023-05-13T10:22:43;11.25;;;6.22;;
75167;SDS011;63748;48.088;11.476;2023-05-13T10:25:09;12.30;;;6.40;;
75167;SDS011;63748;48.088;11.476;2023-05-13T10:27:35;9.93;;;5.65;;
75167;SDS011;63748;48.088;11.476;2023-05-13T10:30:03;9.55;;;5.43;;
75167;SDS011;63748;48.088;11.476;2023-05-13T10:32:33;11.32;;;5.68;;
75167;SDS011;63748;48.088;11.476;2023-05-13T10:37:32;9.73;;;6.40;;
75167;SDS011;63748;48.088;11.476;2023-05-13T10:45:33;9.27;;;4.93;;
75167;SDS011;63748;48.088;11.476;2023-05-13T10:48:04;9.45;;;5.47;;
75167;SDS011;63748;48.088;11.476;2023-05-13T10:50:30;7.93;;;5.05;;
75167;SDS011;63748;48.088;11.476;2023-05-13T10:52:57;8.63;;;5.70;;
75167;SDS011;63748;48.088;11.476;2023-05-13T10:55:25;8.38;;;5.72;;
75167;SDS011;63748;48.088;11.476;2023-05-13T11:00:30;9.07;;;5.47;;
75167;SDS011;63748;48.088;11.476;2023-05-13T11:02:56;11.45;;;6.00;;
75167;SDS011;63748;48.088;11.476;2023-05-13T11:05:22;7.20;;;4.93;;
75167;SDS011;63748;48.088;11.476;2023-05-13T11:07:54;7.65;;;4.53;;
75167;SDS011;63748;48.088;11.476;2023-05-13T11:10:27;8.82;;;5.00;;
75167;SDS011;63748;48.088;11.476;2023-05-13T11:13:06;9.32;;;4.72;;
75167;SDS011;63748;48.088;11.476;2023-05-13T11:15:47;7.70;;;4.72;;
75167;SDS011;63748;48.088;11.476;2023-05-13T11:18:13;8.25;;;5.07;;
75167;SDS011;63748;48.088;11.476;2023-05-13T11:20:39;8.98;;;5.20;;
75167;SDS011;63748;48.088;11.476;2023-05-13T11:23:05;8.82;;;4.53;;
75167;SDS011;63748;48.088;11.476;2023-05-13T11:25:32;7.20;;;4.13;;
75167;SDS011;63748;48.088;11.476;2023-05-13T11:27:59;8.35;;;5.03;;
75167;SDS011;63748;48.088;11.476;2023-05-13T11:30:25;7.22;;;4.38;;
75167;SDS011;63748;48.088;11.476;2023-05-13T11:32:55;7.10;;;4.82;;
75167;SDS011;63748;48.088;11.476;2023-05-13T11:35:26;6.15;;;3.75;;
75167;SDS011;63748;48.088;11.476;2023-05-13T11:37:55;6.38;;;3.92;;
75167;SDS011;63748;48.088;11.476;2023-05-13T11:40:25;9.25;;;5.32;;
75167;SDS011;63748;48.088;11.476;2023-05-13T11:42:52;4.70;;;3.45;;
75167;SDS011;63748;48.088;11.476;2023-05-13T11:45:19;6.50;;;4.28;;
75167;SDS011;63748;48.088;11.476;2023-05-13T11:47:46;8.18;;;5.18;;
75167;SDS011;63748;48.088;11.476;2023-05-13T11:50:18;7.78;;;5.03;;
75167;SDS011;63748;48.088;11.476;2023-05-13T11:52:49;8.38;;;4.75;;
75167;SDS011;63748;48.088;11.476;2023-05-13T11:57:55;6.18;;;4.47;;
75167;SDS011;63748;48.088;11.476;2023-05-13T12:00:30;7.75;;;4.18;;
75167;SDS011;63748;48.088;11.476;2023-05-13T12:02:57;6.18;;;3.72;;
75167;SDS011;63748;48.088;11.476;2023-05-13T12:05:24;6.72;;;3.53;;
75167;SDS011;63748;48.088;11.476;2023-05-13T12:07:50;5.55;;;4.05;;
75167;SDS011;63748;48.088;11.476;2023-05-13T12:10:16;6.40;;;4.25;;
75167;SDS011;63748;48.088;11.476;2023-05-13T12:12:43;4.72;;;3.47;;
75167;SDS011;63748;48.088;11.476;2023-05-13T12:15:11;5.43;;;3.67;;
75167;SDS011;63748;48.088;11.476;2023-05-13T12:17:38;4.88;;;3.50;;
75167;SDS011;63748;48.088;11.476;2023-05-13T12:22:30;4.57;;;3.78;;
75167;SDS011;63748;48.088;11.476;2023-05-13T12:24:56;4.97;;;3.53;;
75167;SDS011;63748;48.088;11.476;2023-05-13T12:27:26;5.03;;;3.50;;
75167;SDS011;63748;48.088;11.476;2023-05-13T12:29:55;5.50;;;3.22;;
75167;SDS011;63748;48.088;11.476;2023-05-13T12:32:23;4.63;;;3.28;;
75167;SDS011;63748;48.088;11.476;2023-05-13T12:34:50;4.47;;;3.35;;
75167;SDS011;63748;48.088;11.476;2023-05-13T12:37:16;4.68;;;3.40;;
75167;SDS011;63748;48.088;11.476;2023-05-13T12:39:42;5.72;;;3.42;;
75167;SDS011;63748;48.088;11.476;2023-05-13T12:42:15;4.13;;;2.90;;
75167;SDS011;63748;48.088;11.476;2023-05-13T12:44:44;5.15;;;3.13;;
75167;SDS011;63748;48.088;11.476;2023-05-13T12:47:10;3.85;;;3.45;;
75167;SDS011;63748;48.088;11.476;2023-05-13T12:49:51;3.72;;;3.08;;
75167;SDS011;63748;48.088;11.476;2023-05-13T12:52:17;4.00;;;3.45;;
75167;SDS011;63748;48.088;11.476;2023-05-13T12:54:43;4.07;;;3.10;;
75167;SDS011;63748;48.088;11.476;2023-05-13T12:57:09;3.78;;;2.78;;
75167;SDS011;63748;48.088;11.476;2023-05-13T12:59:35;4.07;;;2.80;;
75167;SDS011;63748;48.088;11.476;2023-05-13T13:02:01;4.13;;;2.88;;
75167;SDS011;63748;48.088;11.476;2023-05-13T13:04:27;3.55;;;2.80;;
75167;SDS011;63748;48.088;11.476;2023-05-13T13:06:53;4.07;;;3.35;;
75167;SDS011;63748;48.088;11.476;2023-05-13T13:09:19;3.42;;;2.85;;
75167;SDS011;63748;48.088;11.476;2023-05-13T13:11:46;4.18;;;3.13;;
75167;SDS011;63748;48.088;11.476;2023-05-13T13:14:12;4.70;;;2.92;;
75167;SDS011;63748;48.088;11.476;2023-05-13T13:16:38;3.97;;;3.22;;
75167;SDS011;63748;48.088;11.476;2023-05-13T13:19:04;3.65;;;2.33;;
75167;SDS011;63748;48.088;11.476;2023-05-13T13:21:30;3.85;;;3.10;;
75167;SDS011;63748;48.088;11.476;2023-05-13T13:23:56;4.00;;;3.20;;
75167;SDS011;63748;48.088;11.476;2023-05-13T13:26:22;5.60;;;3.20;;
75167;SDS011;63748;48.088;11.476;2023-05-13T13:28:48;4.15;;;3.00;;
75167;SDS011;63748;48.088;11.476;2023-05-13T13:31:14;3.65;;;2.70;;
75167;SDS011;63748;48.088;11.476;2023-05-13T13:33:40;3.45;;;3.13;;
75167;SDS011;63748;48.088;11.476;2023-05-13T13:36:06;4.32;;;3.28;;
75167;SDS011;63748;48.088;11.476;2023-05-13T13:38:32;4.30;;;2.88;;
75167;SDS011;63748;48.088;11.476;2023-05-13T13:40:58;3.22;;;2.63;;
75167;SDS011;63748;48.088;11.476;2023-05-13T13:43:24;3.85;;;2.97;;
75167;SDS011;63748;48.088;11.476;2023-05-13T13:45:51;3.55;;;2.80;;
75167;SDS011;63748;48.088;11.476;2023-05-13T13:48:17;3.67;;;2.72;;
75167;SDS011;63748;48.088;11.476;2023-05-13T13:50:43;3.60;;;2.67;;
75167;SDS011;63748;48.088;11.476;2023-05-13T13:53:09;4.00;;;3.15;;
75167;SDS011;63748;48.088;11.476;2023-05-13T13:55:36;4.30;;;2.75;;
75167;SDS011;63748;48.088;11.476;2023-05-13T13:58:02;4.03;;;2.72;;
75167;SDS011;63748;48.088;11.476;2023-05-13T14:00:28;3.03;;;2.05;;
75167;SDS011;63748;48.088;11.476;2023-05-13T14:02:54;3.65;;;2.97;;
75167;SDS011;63748;48.088;11.476;2023-05-13T14:05:20;4.63;;;2.75;;
75167;SDS011;63748;48.088;11.476;2023-05-13T14:07:46;3.67;;;2.50;;
75167;SDS011;63748;48.088;11.476;2023-05-13T14:10:13;3.42;;;2.70;;
75167;SDS011;63748;48.088;11.476;2023-05-13T14:12:39;4.25;;;3.08;;
75167;SDS011;63748;48.088;11.476;2023-05-13T14:15:06;3.10;;;2.70;;
75167;SDS011;63748;48.088;11.476;2023-05-13T14:17:32;3.75;;;2.97;;
75167;SDS011;63748;48.088;11.476;2023-05-13T14:19:58;4.65;;;3.67;;
75167;SDS011;63748;48.088;11.476;2023-05-13T14:22:24;4.55;;;3.03;;
75167;SDS011;63748;48.088;11.476;2023-05-13T14:24:50;3.83;;;3.10;;
75167;SDS011;63748;48.088;11.476;2023-05-13T14:27:17;3.60;;;2.75;;
75167;SDS011;63748;48.088;11.476;2023-05-13T14:29:44;4.15;;;2.95;;
75167;SDS011;63748;48.088;11.476;2023-05-13T14:32:10;3.70;;;2.80;;
75167;SDS011;63748;48.088;11.476;2023-05-13T14:34:36;3.08;;;2.30;;
75167;SDS011;63748;48.088;11.476;2023-05-13T14:37:02;5.05;;;3.72;;
75167;SDS011;63748;48.088;11.476;2023-05-13T14:39:28;3.38;;;2.80;;
75167;SDS011;63748;48.088;11.476;2023-05-13T14:41:54;4.13;;;2.92;;
75167;SDS011;63748;48.088;11.476;2023-05-13T14:44:21;2.83;;;2.42;;